KWWR/WWR METAR and TAF weather

Enter ICAO airport designator
Station Type Date Time Source
KWWR METAR 2022/01/26 08:15 UTC NOAA

KWWR 260815Z AUTO 02007KT 10SM SCT020 OVC080 M07/M10 A3045 RMK AO2


Station Type Date Time Source
KWWR Decoded METAR 2022/01/26 08:15 UTC NOAA

Woodward, West Woodward Airport, OK, United States (KWWR) 36-26-12N 099-31-16W 667M
Jan 26, 2022 - 03:15 AM EST / 2022.01.26 0815 UTC
Wind: from the NNE (020 degrees) at 8 MPH (7 KT):0
Visibility: 10 mile(s):0
Sky conditions: overcast
Temperature: 19 F (-7 C)
Windchill: 8 F (-13 C):1
Dew Point: 14 F (-10 C)
Relative Humidity: 79%
Pressure (altimeter): 30.45 in. Hg (1031 hPa)
ob: KWWR 260815Z AUTO 02007KT 10SM SCT020 OVC080 M07/M10 A3045 RMK AO2
cycle: 8

Station Type Date Time Source
KWWR TAF 2022/01/26 06:22 UTC NOAA

TAF KWWR 260520Z 2606/2706 04010KT P6SM OVC050
FM261200 16005KT P6SM OVC050
FM261800 19012KT P6SM OVC040 PROB30 2620/2623 4SM -SN OVC025

Example: see airport list